sensor_id;sensor_type;location;lat;lon;timestamp;P1;durP1;ratioP1;P2;durP2;ratioP2
13032;SDS011;6583;42.632;23.298;2024-01-30T00:00:29;6.87;;;5.30;;
13032;SDS011;6583;42.632;23.298;2024-01-30T00:02:55;7.57;;;5.00;;
13032;SDS011;6583;42.632;23.298;2024-01-30T00:05:22;8.07;;;5.40;;
13032;SDS011;6583;42.632;23.298;2024-01-30T00:07:49;7.73;;;5.60;;
13032;SDS011;6583;42.632;23.298;2024-01-30T00:10:18;6.57;;;4.93;;
13032;SDS011;6583;42.632;23.298;2024-01-30T00:12:44;7.40;;;5.20;;
13032;SDS011;6583;42.632;23.298;2024-01-30T00:15:11;5.87;;;4.27;;
13032;SDS011;6583;42.632;23.298;2024-01-30T00:17:38;6.70;;;4.07;;
13032;SDS011;6583;42.632;23.298;2024-01-30T00:20:05;6.67;;;4.57;;
13032;SDS011;6583;42.632;23.298;2024-01-30T00:22:34;6.43;;;4.33;;
13032;SDS011;6583;42.632;23.298;2024-01-30T00:25:00;6.80;;;4.60;;
13032;SDS011;6583;42.632;23.298;2024-01-30T00:27:28;6.40;;;4.40;;
13032;SDS011;6583;42.632;23.298;2024-01-30T00:29:55;6.23;;;4.60;;
13032;SDS011;6583;42.632;23.298;2024-01-30T00:32:22;5.87;;;4.47;;
13032;SDS011;6583;42.632;23.298;2024-01-30T00:34:49;6.80;;;4.73;;
13032;SDS011;6583;42.632;23.298;2024-01-30T00:37:16;5.57;;;4.13;;
13032;SDS011;6583;42.632;23.298;2024-01-30T00:39:43;6.00;;;4.57;;
13032;SDS011;6583;42.632;23.298;2024-01-30T00:42:09;6.37;;;4.03;;
13032;SDS011;6583;42.632;23.298;2024-01-30T00:44:38;6.70;;;4.57;;
13032;SDS011;6583;42.632;23.298;2024-01-30T00:47:04;4.87;;;4.00;;
13032;SDS011;6583;42.632;23.298;2024-01-30T00:49:31;5.80;;;4.30;;
13032;SDS011;6583;42.632;23.298;2024-01-30T00:51:58;6.80;;;4.60;;
13032;SDS011;6583;42.632;23.298;2024-01-30T00:54:25;5.17;;;4.10;;
13032;SDS011;6583;42.632;23.298;2024-01-30T00:56:51;6.00;;;4.30;;
13032;SDS011;6583;42.632;23.298;2024-01-30T00:59:18;5.53;;;4.20;;
13032;SDS011;6583;42.632;23.298;2024-01-30T01:01:46;5.60;;;4.27;;
13032;SDS011;6583;42.632;23.298;2024-01-30T01:04:13;5.87;;;4.27;;
13032;SDS011;6583;42.632;23.298;2024-01-30T01:06:40;7.43;;;4.40;;
13032;SDS011;6583;42.632;23.298;2024-01-30T01:09:09;5.83;;;4.60;;
13032;SDS011;6583;42.632;23.298;2024-01-30T01:11:37;6.37;;;4.20;;
13032;SDS011;6583;42.632;23.298;2024-01-30T01:14:04;5.17;;;4.10;;
13032;SDS011;6583;42.632;23.298;2024-01-30T01:16:31;7.37;;;4.70;;
13032;SDS011;6583;42.632;23.298;2024-01-30T01:18:59;6.30;;;4.70;;
13032;SDS011;6583;42.632;23.298;2024-01-30T01:21:26;7.03;;;4.80;;
13032;SDS011;6583;42.632;23.298;2024-01-30T01:23:52;6.23;;;4.53;;
13032;SDS011;6583;42.632;23.298;2024-01-30T01:26:19;7.33;;;4.93;;
13032;SDS011;6583;42.632;23.298;2024-01-30T01:28:46;5.83;;;4.30;;
13032;SDS011;6583;42.632;23.298;2024-01-30T01:31:13;5.83;;;4.03;;
13032;SDS011;6583;42.632;23.298;2024-01-30T01:33:40;4.43;;;3.40;;
13032;SDS011;6583;42.632;23.298;2024-01-30T01:36:08;4.10;;;3.03;;
13032;SDS011;6583;42.632;23.298;2024-01-30T01:38:35;3.03;;;2.50;;
13032;SDS011;6583;42.632;23.298;2024-01-30T01:41:02;4.37;;;3.00;;
13032;SDS011;6583;42.632;23.298;2024-01-30T01:43:28;3.00;;;2.17;;
13032;SDS011;6583;42.632;23.298;2024-01-30T01:45:55;3.93;;;2.70;;
13032;SDS011;6583;42.632;23.298;2024-01-30T01:48:22;5.20;;;3.77;;
13032;SDS011;6583;42.632;23.298;2024-01-30T01:50:49;4.60;;;3.13;;
13032;SDS011;6583;42.632;23.298;2024-01-30T01:53:17;2.83;;;2.13;;
13032;SDS011;6583;42.632;23.298;2024-01-30T01:55:45;4.87;;;3.07;;
13032;SDS011;6583;42.632;23.298;2024-01-30T01:58:13;5.90;;;4.33;;
13032;SDS011;6583;42.632;23.298;2024-01-30T02:00:40;7.03;;;4.90;;
13032;SDS011;6583;42.632;23.298;2024-01-30T02:03:08;8.77;;;5.23;;
13032;SDS011;6583;42.632;23.298;2024-01-30T02:05:37;8.07;;;4.90;;
13032;SDS011;6583;42.632;23.298;2024-01-30T02:08:04;7.37;;;5.50;;
13032;SDS011;6583;42.632;23.298;2024-01-30T02:10:33;6.60;;;4.70;;
13032;SDS011;6583;42.632;23.298;2024-01-30T02:13:00;7.27;;;4.90;;
13032;SDS011;6583;42.632;23.298;2024-01-30T02:15:28;6.13;;;4.00;;
13032;SDS011;6583;42.632;23.298;2024-01-30T02:17:55;6.63;;;4.47;;
13032;SDS011;6583;42.632;23.298;2024-01-30T02:20:22;6.50;;;4.40;;
13032;SDS011;6583;42.632;23.298;2024-01-30T02:22:52;9.17;;;5.00;;
13032;SDS011;6583;42.632;23.298;2024-01-30T02:25:20;6.90;;;4.70;;
13032;SDS011;6583;42.632;23.298;2024-01-30T02:27:56;7.30;;;4.60;;
13032;SDS011;6583;42.632;23.298;2024-01-30T02:30:22;6.57;;;4.77;;
13032;SDS011;6583;42.632;23.298;2024-01-30T02:32:49;5.87;;;4.23;;
13032;SDS011;6583;42.632;23.298;2024-01-30T02:35:16;5.67;;;3.93;;
13032;SDS011;6583;42.632;23.298;2024-01-30T02:37:42;5.37;;;3.87;;
13032;SDS011;6583;42.632;23.298;2024-01-30T02:40:11;5.83;;;3.73;;
13032;SDS011;6583;42.632;23.298;2024-01-30T02:42:38;6.47;;;3.87;;
13032;SDS011;6583;42.632;23.298;2024-01-30T02:45:07;4.80;;;3.60;;
13032;SDS011;6583;42.632;23.298;2024-01-30T02:47:34;5.23;;;3.90;;
13032;SDS011;6583;42.632;23.298;2024-01-30T02:50:01;5.00;;;3.90;;
13032;SDS011;6583;42.632;23.298;2024-01-30T02:52:28;5.67;;;4.07;;
13032;SDS011;6583;42.632;23.298;2024-01-30T02:54:55;5.70;;;4.20;;
13032;SDS011;6583;42.632;23.298;2024-01-30T02:57:23;6.13;;;4.40;;
13032;SDS011;6583;42.632;23.298;2024-01-30T02:59:50;5.73;;;3.87;;
13032;SDS011;6583;42.632;23.298;2024-01-30T03:02:16;6.67;;;4.10;;
13032;SDS011;6583;42.632;23.298;2024-01-30T03:04:43;5.23;;;3.97;;
13032;SDS011;6583;42.632;23.298;2024-01-30T03:07:10;5.80;;;4.10;;
13032;SDS011;6583;42.632;23.298;2024-01-30T03:09:37;7.00;;;4.40;;
13032;SDS011;6583;42.632;23.298;2024-01-30T03:12:04;6.13;;;4.03;;
13032;SDS011;6583;42.632;23.298;2024-01-30T03:14:36;5.53;;;4.07;;
13032;SDS011;6583;42.632;23.298;2024-01-30T03:17:02;5.73;;;4.00;;
13032;SDS011;6583;42.632;23.298;2024-01-30T03:19:29;6.50;;;4.30;;
13032;SDS011;6583;42.632;23.298;2024-01-30T03:21:56;5.60;;;4.07;;
13032;SDS011;6583;42.632;23.298;2024-01-30T03:24:23;7.20;;;4.30;;
13032;SDS011;6583;42.632;23.298;2024-01-30T03:26:50;6.20;;;4.37;;
13032;SDS011;6583;42.632;23.298;2024-01-30T03:29:17;6.23;;;5.03;;
13032;SDS011;6583;42.632;23.298;2024-01-30T03:31:45;6.50;;;4.50;;
13032;SDS011;6583;42.632;23.298;2024-01-30T03:34:12;7.33;;;4.70;;
13032;SDS011;6583;42.632;23.298;2024-01-30T03:36:39;6.10;;;4.37;;
13032;SDS011;6583;42.632;23.298;2024-01-30T03:39:05;5.30;;;3.70;;
13032;SDS011;6583;42.632;23.298;2024-01-30T03:41:32;5.63;;;4.00;;
13032;SDS011;6583;42.632;23.298;2024-01-30T03:43:59;8.20;;;5.27;;
13032;SDS011;6583;42.632;23.298;2024-01-30T03:46:26;10.70;;;6.63;;
13032;SDS011;6583;42.632;23.298;2024-01-30T03:48:54;7.17;;;4.67;;
13032;SDS011;6583;42.632;23.298;2024-01-30T03:51:21;14.43;;;7.67;;
13032;SDS011;6583;42.632;23.298;2024-01-30T03:53:48;14.20;;;7.97;;
13032;SDS011;6583;42.632;23.298;2024-01-30T03:56:14;6.07;;;4.20;;
13032;SDS011;6583;42.632;23.298;2024-01-30T03:58:41;6.77;;;4.33;;
13032;SDS011;6583;42.632;23.298;2024-01-30T04:01:12;6.13;;;4.20;;
13032;SDS011;6583;42.632;23.298;2024-01-30T04:03:40;5.90;;;3.90;;
13032;SDS011;6583;42.632;23.298;2024-01-30T04:06:08;4.90;;;3.57;;
13032;SDS011;6583;42.632;23.298;2024-01-30T04:08:35;8.50;;;3.57;;
13032;SDS011;6583;42.632;23.298;2024-01-30T04:11:03;4.87;;;2.90;;
13032;SDS011;6583;42.632;23.298;2024-01-30T04:13:33;5.00;;;3.53;;
13032;SDS011;6583;42.632;23.298;2024-01-30T04:16:01;5.27;;;3.27;;
13032;SDS011;6583;42.632;23.298;2024-01-30T04:18:28;4.90;;;3.50;;
13032;SDS011;6583;42.632;23.298;2024-01-30T04:20:55;3.87;;;2.67;;
13032;SDS011;6583;42.632;23.298;2024-01-30T04:23:23;5.37;;;3.40;;
13032;SDS011;6583;42.632;23.298;2024-01-30T04:25:50;6.17;;;3.27;;
13032;SDS011;6583;42.632;23.298;2024-01-30T04:28:17;5.27;;;3.17;;
13032;SDS011;6583;42.632;23.298;2024-01-30T04:30:44;4.27;;;2.77;;
13032;SDS011;6583;42.632;23.298;2024-01-30T04:33:10;4.53;;;2.80;;
13032;SDS011;6583;42.632;23.298;2024-01-30T04:35:37;4.33;;;2.70;;
13032;SDS011;6583;42.632;23.298;2024-01-30T04:38:04;3.27;;;2.43;;
13032;SDS011;6583;42.632;23.298;2024-01-30T04:40:32;3.87;;;2.60;;
13032;SDS011;6583;42.632;23.298;2024-01-30T04:42:59;3.27;;;2.00;;
13032;SDS011;6583;42.632;23.298;2024-01-30T04:45:25;2.80;;;2.30;;
13032;SDS011;6583;42.632;23.298;2024-01-30T04:47:52;3.20;;;2.10;;
13032;SDS011;6583;42.632;23.298;2024-01-30T04:50:19;3.77;;;2.47;;
13032;SDS011;6583;42.632;23.298;2024-01-30T04:52:46;2.87;;;1.67;;
13032;SDS011;6583;42.632;23.298;2024-01-30T04:55:12;2.67;;;2.00;;
13032;SDS011;6583;42.632;23.298;2024-01-30T04:57:41;2.87;;;2.40;;
13032;SDS011;6583;42.632;23.298;2024-01-30T05:00:08;2.53;;;1.83;;
13032;SDS011;6583;42.632;23.298;2024-01-30T05:02:36;2.50;;;1.77;;
13032;SDS011;6583;42.632;23.298;2024-01-30T05:05:02;3.10;;;1.90;;
13032;SDS011;6583;42.632;23.298;2024-01-30T05:07:29;3.03;;;2.10;;
13032;SDS011;6583;42.632;23.298;2024-01-30T05:09:56;3.13;;;2.13;;
13032;SDS011;6583;42.632;23.298;2024-01-30T05:12:23;2.73;;;1.87;;
13032;SDS011;6583;42.632;23.298;2024-01-30T05:14:51;3.17;;;2.37;;
13032;SDS011;6583;42.632;23.298;2024-01-30T05:17:18;3.80;;;2.70;;
13032;SDS011;6583;42.632;23.298;2024-01-30T05:19:45;3.27;;;2.97;;
13032;SDS011;6583;42.632;23.298;2024-01-30T05:22:11;5.10;;;3.37;;
13032;SDS011;6583;42.632;23.298;2024-01-30T05:24:40;5.03;;;3.30;;
13032;SDS011;6583;42.632;23.298;2024-01-30T05:27:07;5.70;;;3.90;;
13032;SDS011;6583;42.632;23.298;2024-01-30T05:29:34;7.93;;;4.10;;
13032;SDS011;6583;42.632;23.298;2024-01-30T05:32:02;5.97;;;3.90;;
13032;SDS011;6583;42.632;23.298;2024-01-30T05:34:29;5.57;;;3.73;;
13032;SDS011;6583;42.632;23.298;2024-01-30T05:36:56;4.93;;;3.63;;
13032;SDS011;6583;42.632;23.298;2024-01-30T05:39:22;8.00;;;5.07;;
13032;SDS011;6583;42.632;23.298;2024-01-30T05:41:49;7.37;;;5.17;;
13032;SDS011;6583;42.632;23.298;2024-01-30T05:44:16;10.07;;;5.03;;
13032;SDS011;6583;42.632;23.298;2024-01-30T05:46:43;5.93;;;4.27;;
13032;SDS011;6583;42.632;23.298;2024-01-30T05:49:11;6.70;;;4.20;;
13032;SDS011;6583;42.632;23.298;2024-01-30T05:51:38;8.67;;;4.67;;
13032;SDS011;6583;42.632;23.298;2024-01-30T05:54:04;6.10;;;4.10;;
13032;SDS011;6583;42.632;23.298;2024-01-30T05:56:31;8.47;;;5.80;;
13032;SDS011;6583;42.632;23.298;2024-01-30T05:58:58;7.73;;;5.33;;
13032;SDS011;6583;42.632;23.298;2024-01-30T06:01:25;9.50;;;5.67;;
13032;SDS011;6583;42.632;23.298;2024-01-30T06:03:51;12.43;;;6.63;;
13032;SDS011;6583;42.632;23.298;2024-01-30T06:06:19;9.97;;;6.17;;
13032;SDS011;6583;42.632;23.298;2024-01-30T06:08:46;17.23;;;7.93;;
13032;SDS011;6583;42.632;23.298;2024-01-30T06:11:13;15.07;;;7.77;;
13032;SDS011;6583;42.632;23.298;2024-01-30T06:13:40;14.27;;;7.53;;
13032;SDS011;6583;42.632;23.298;2024-01-30T06:16:09;13.17;;;7.10;;
13032;SDS011;6583;42.632;23.298;2024-01-30T06:18:36;10.53;;;7.40;;
13032;SDS011;6583;42.632;23.298;2024-01-30T06:21:04;11.20;;;7.13;;
13032;SDS011;6583;42.632;23.298;2024-01-30T06:23:32;11.50;;;7.07;;
13032;SDS011;6583;42.632;23.298;2024-01-30T06:25:59;12.50;;;6.97;;
13032;SDS011;6583;42.632;23.298;2024-01-30T06:28:26;10.37;;;6.53;;
13032;SDS011;6583;42.632;23.298;2024-01-30T06:30:52;12.10;;;7.00;;
13032;SDS011;6583;42.632;23.298;2024-01-30T06:33:19;10.00;;;6.07;;
13032;SDS011;6583;42.632;23.298;2024-01-30T06:35:46;8.37;;;5.33;;
13032;SDS011;6583;42.632;23.298;2024-01-30T06:38:12;8.30;;;4.77;;
13032;SDS011;6583;42.632;23.298;2024-01-30T06:40:42;5.83;;;3.27;;
13032;SDS011;6583;42.632;23.298;2024-01-30T06:43:08;9.03;;;4.10;;
13032;SDS011;6583;42.632;23.298;2024-01-30T06:45:36;4.07;;;2.80;;
13032;SDS011;6583;42.632;23.298;2024-01-30T06:48:03;4.03;;;2.77;;
13032;SDS011;6583;42.632;23.298;2024-01-30T06:50:30;4.33;;;3.00;;
13032;SDS011;6583;42.632;23.298;2024-01-30T06:52:57;3.73;;;2.40;;
13032;SDS011;6583;42.632;23.298;2024-01-30T06:55:23;3.20;;;2.40;;
13032;SDS011;6583;42.632;23.298;2024-01-30T06:57:52;3.17;;;2.10;;
13032;SDS011;6583;42.632;23.298;2024-01-30T07:00:19;2.40;;;1.80;;
13032;SDS011;6583;42.632;23.298;2024-01-30T07:02:46;2.73;;;1.80;;
13032;SDS011;6583;42.632;23.298;2024-01-30T07:05:13;3.40;;;2.40;;
13032;SDS011;6583;42.632;23.298;2024-01-30T07:07:40;3.73;;;2.33;;
13032;SDS011;6583;42.632;23.298;2024-01-30T07:10:07;3.77;;;2.43;;
13032;SDS011;6583;42.632;23.298;2024-01-30T07:12:35;3.33;;;2.53;;
13032;SDS011;6583;42.632;23.298;2024-01-30T07:15:05;4.90;;;2.73;;
13032;SDS011;6583;42.632;23.298;2024-01-30T07:17:34;3.73;;;2.60;;
13032;SDS011;6583;42.632;23.298;2024-01-30T07:20:00;3.57;;;2.60;;
13032;SDS011;6583;42.632;23.298;2024-01-30T07:22:28;2.83;;;2.00;;
13032;SDS011;6583;42.632;23.298;2024-01-30T07:24:56;3.40;;;2.00;;
13032;SDS011;6583;42.632;23.298;2024-01-30T07:27:22;3.00;;;1.83;;
13032;SDS011;6583;42.632;23.298;2024-01-30T07:29:49;4.50;;;2.20;;
13032;SDS011;6583;42.632;23.298;2024-01-30T07:32:17;3.00;;;2.20;;
13032;SDS011;6583;42.632;23.298;2024-01-30T07:34:44;3.27;;;1.97;;
13032;SDS011;6583;42.632;23.298;2024-01-30T07:37:11;3.50;;;2.00;;
13032;SDS011;6583;42.632;23.298;2024-01-30T07:39:40;3.77;;;2.50;;
13032;SDS011;6583;42.632;23.298;2024-01-30T07:42:07;7.77;;;3.33;;
13032;SDS011;6583;42.632;23.298;2024-01-30T07:44:34;3.30;;;2.37;;
13032;SDS011;6583;42.632;23.298;2024-01-30T07:47:00;3.27;;;1.93;;
13032;SDS011;6583;42.632;23.298;2024-01-30T07:49:29;2.03;;;1.80;;
13032;SDS011;6583;42.632;23.298;2024-01-30T07:51:56;4.80;;;2.60;;
13032;SDS011;6583;42.632;23.298;2024-01-30T07:54:23;3.80;;;2.33;;
13032;SDS011;6583;42.632;23.298;2024-01-30T07:56:49;3.80;;;2.53;;
13032;SDS011;6583;42.632;23.298;2024-01-30T07:59:16;3.70;;;2.20;;
13032;SDS011;6583;42.632;23.298;2024-01-30T08:01:44;5.73;;;3.40;;
13032;SDS011;6583;42.632;23.298;2024-01-30T08:04:11;7.67;;;3.73;;
13032;SDS011;6583;42.632;23.298;2024-01-30T08:06:39;5.90;;;3.50;;
13032;SDS011;6583;42.632;23.298;2024-01-30T08:09:06;3.17;;;2.03;;
13032;SDS011;6583;42.632;23.298;2024-01-30T08:11:33;3.53;;;2.20;;
13032;SDS011;6583;42.632;23.298;2024-01-30T08:14:00;4.47;;;2.67;;
13032;SDS011;6583;42.632;23.298;2024-01-30T08:16:27;4.17;;;2.77;;
13032;SDS011;6583;42.632;23.298;2024-01-30T08:18:53;2.83;;;1.97;;
13032;SDS011;6583;42.632;23.298;2024-01-30T08:21:22;2.53;;;1.80;;
13032;SDS011;6583;42.632;23.298;2024-01-30T08:23:50;3.27;;;2.07;;
13032;SDS011;6583;42.632;23.298;2024-01-30T08:26:17;2.80;;;2.50;;
13032;SDS011;6583;42.632;23.298;2024-01-30T08:28:44;3.10;;;2.20;;
13032;SDS011;6583;42.632;23.298;2024-01-30T08:31:11;5.67;;;2.50;;
13032;SDS011;6583;42.632;23.298;2024-01-30T08:33:38;3.40;;;2.47;;
13032;SDS011;6583;42.632;23.298;2024-01-30T08:36:04;5.07;;;3.20;;
13032;SDS011;6583;42.632;23.298;2024-01-30T08:38:32;3.63;;;2.70;;
13032;SDS011;6583;42.632;23.298;2024-01-30T08:41:00;3.33;;;2.60;;
13032;SDS011;6583;42.632;23.298;2024-01-30T08:43:27;2.97;;;2.37;;
13032;SDS011;6583;42.632;23.298;2024-01-30T08:45:54;5.17;;;3.00;;
13032;SDS011;6583;42.632;23.298;2024-01-30T08:48:22;4.33;;;2.97;;
13032;SDS011;6583;42.632;23.298;2024-01-30T08:50:50;4.73;;;3.30;;
13032;SDS011;6583;42.632;23.298;2024-01-30T08:53:17;5.47;;;3.87;;
13032;SDS011;6583;42.632;23.298;2024-01-30T08:55:43;3.70;;;2.97;;
13032;SDS011;6583;42.632;23.298;2024-01-30T08:58:11;7.10;;;3.77;;
13032;SDS011;6583;42.632;23.298;2024-01-30T09:00:38;4.93;;;3.23;;
13032;SDS011;6583;42.632;23.298;2024-01-30T09:03:05;8.47;;;4.47;;
13032;SDS011;6583;42.632;23.298;2024-01-30T09:05:32;6.20;;;4.00;;
13032;SDS011;6583;42.632;23.298;2024-01-30T09:08:00;4.73;;;3.50;;
13032;SDS011;6583;42.632;23.298;2024-01-30T09:10:26;7.47;;;4.73;;
13032;SDS011;6583;42.632;23.298;2024-01-30T09:12:53;6.10;;;3.23;;
13032;SDS011;6583;42.632;23.298;2024-01-30T09:15:21;6.37;;;3.73;;
13032;SDS011;6583;42.632;23.298;2024-01-30T09:17:48;5.00;;;3.30;;
13032;SDS011;6583;42.632;23.298;2024-01-30T09:20:15;7.40;;;4.10;;
13032;SDS011;6583;42.632;23.298;2024-01-30T09:22:42;5.60;;;3.60;;
13032;SDS011;6583;42.632;23.298;2024-01-30T09:25:09;7.23;;;3.83;;
13032;SDS011;6583;42.632;23.298;2024-01-30T09:27:36;7.77;;;5.30;;
13032;SDS011;6583;42.632;23.298;2024-01-30T09:30:03;8.47;;;5.43;;
13032;SDS011;6583;42.632;23.298;2024-01-30T09:32:31;5.70;;;3.73;;
13032;SDS011;6583;42.632;23.298;2024-01-30T09:34:58;7.63;;;4.60;;
13032;SDS011;6583;42.632;23.298;2024-01-30T09:37:25;9.00;;;5.63;;
13032;SDS011;6583;42.632;23.298;2024-01-30T09:39:52;9.53;;;6.10;;
13032;SDS011;6583;42.632;23.298;2024-01-30T09:42:20;6.00;;;4.63;;
13032;SDS011;6583;42.632;23.298;2024-01-30T09:44:54;9.17;;;4.40;;
13032;SDS011;6583;42.632;23.298;2024-01-30T09:47:22;5.60;;;3.70;;
13032;SDS011;6583;42.632;23.298;2024-01-30T09:49:50;5.33;;;3.90;;
13032;SDS011;6583;42.632;23.298;2024-01-30T09:52:17;7.87;;;5.00;;
13032;SDS011;6583;42.632;23.298;2024-01-30T09:54:45;6.70;;;4.13;;
13032;SDS011;6583;42.632;23.298;2024-01-30T09:57:11;5.77;;;4.20;;
13032;SDS011;6583;42.632;23.298;2024-01-30T09:59:38;6.20;;;4.27;;
13032;SDS011;6583;42.632;23.298;2024-01-30T10:02:07;6.00;;;4.33;;
13032;SDS011;6583;42.632;23.298;2024-01-30T10:04:35;5.33;;;3.63;;
13032;SDS011;6583;42.632;23.298;2024-01-30T10:07:03;6.13;;;4.37;;
13032;SDS011;6583;42.632;23.298;2024-01-30T10:09:31;6.43;;;4.30;;
13032;SDS011;6583;42.632;23.298;2024-01-30T10:11:59;6.50;;;4.50;;
13032;SDS011;6583;42.632;23.298;2024-01-30T10:14:28;5.77;;;4.37;;
13032;SDS011;6583;42.632;23.298;2024-01-30T10:16:57;8.10;;;4.73;;
13032;SDS011;6583;42.632;23.298;2024-01-30T10:19:24;8.20;;;5.30;;
13032;SDS011;6583;42.632;23.298;2024-01-30T10:21:51;9.73;;;5.93;;
13032;SDS011;6583;42.632;23.298;2024-01-30T10:24:23;8.40;;;5.10;;
13032;SDS011;6583;42.632;23.298;2024-01-30T10:26:50;6.87;;;4.43;;
13032;SDS011;6583;42.632;23.298;2024-01-30T10:29:17;5.33;;;3.90;;
13032;SDS011;6583;42.632;23.298;2024-01-30T10:31:44;6.17;;;4.47;;
13032;SDS011;6583;42.632;23.298;2024-01-30T10:34:10;6.20;;;3.93;;
13032;SDS011;6583;42.632;23.298;2024-01-30T10:36:39;7.37;;;4.47;;
13032;SDS011;6583;42.632;23.298;2024-01-30T10:39:07;8.23;;;4.37;;
13032;SDS011;6583;42.632;23.298;2024-01-30T10:41:38;8.63;;;4.53;;
13032;SDS011;6583;42.632;23.298;2024-01-30T10:44:09;6.43;;;4.40;;
13032;SDS011;6583;42.632;23.298;2024-01-30T10:46:37;6.60;;;4.57;;
13032;SDS011;6583;42.632;23.298;2024-01-30T10:49:05;6.67;;;4.57;;
13032;SDS011;6583;42.632;23.298;2024-01-30T10:51:32;8.90;;;5.37;;
13032;SDS011;6583;42.632;23.298;2024-01-30T10:54:01;9.07;;;6.30;;
13032;SDS011;6583;42.632;23.298;2024-01-30T10:56:29;8.80;;;5.10;;
13032;SDS011;6583;42.632;23.298;2024-01-30T10:59:00;5.87;;;4.30;;
13032;SDS011;6583;42.632;23.298;2024-01-30T11:01:27;6.47;;;4.23;;
13032;SDS011;6583;42.632;23.298;2024-01-30T11:03:55;6.33;;;4.57;;
13032;SDS011;6583;42.632;23.298;2024-01-30T11:06:22;6.37;;;4.73;;
13032;SDS011;6583;42.632;23.298;2024-01-30T11:09:00;6.90;;;5.20;;
13032;SDS011;6583;42.632;23.298;2024-01-30T11:11:29;8.40;;;5.20;;
13032;SDS011;6583;42.632;23.298;2024-01-30T11:13:55;7.43;;;5.00;;
13032;SDS011;6583;42.632;23.298;2024-01-30T11:16:30;6.63;;;4.30;;
13032;SDS011;6583;42.632;23.298;2024-01-30T11:19:00;7.20;;;4.40;;
13032;SDS011;6583;42.632;23.298;2024-01-30T11:21:27;5.50;;;4.47;;
13032;SDS011;6583;42.632;23.298;2024-01-30T11:23:54;7.17;;;4.63;;
13032;SDS011;6583;42.632;23.298;2024-01-30T11:26:23;7.33;;;4.40;;
13032;SDS011;6583;42.632;23.298;2024-01-30T11:28:54;5.87;;;3.97;;
13032;SDS011;6583;42.632;23.298;2024-01-30T11:31:23;6.83;;;3.70;;
13032;SDS011;6583;42.632;23.298;2024-01-30T11:33:52;5.23;;;3.53;;
13032;SDS011;6583;42.632;23.298;2024-01-30T11:36:19;5.70;;;3.50;;
13032;SDS011;6583;42.632;23.298;2024-01-30T11:38:51;4.87;;;3.13;;
13032;SDS011;6583;42.632;23.298;2024-01-30T11:41:18;5.73;;;4.23;;
13032;SDS011;6583;42.632;23.298;2024-01-30T11:43:51;5.70;;;4.07;;
13032;SDS011;6583;42.632;23.298;2024-01-30T11:46:18;6.70;;;4.30;;
13032;SDS011;6583;42.632;23.298;2024-01-30T11:48:46;4.93;;;3.60;;
13032;SDS011;6583;42.632;23.298;2024-01-30T11:51:13;5.47;;;4.17;;
13032;SDS011;6583;42.632;23.298;2024-01-30T11:53:40;6.93;;;3.50;;
13032;SDS011;6583;42.632;23.298;2024-01-30T11:56:07;6.27;;;3.77;;
13032;SDS011;6583;42.632;23.298;2024-01-30T11:58:34;4.83;;;3.60;;
13032;SDS011;6583;42.632;23.298;2024-01-30T12:01:01;6.20;;;4.53;;
13032;SDS011;6583;42.632;23.298;2024-01-30T12:03:28;4.73;;;3.20;;
13032;SDS011;6583;42.632;23.298;2024-01-30T12:05:56;3.83;;;3.33;;
13032;SDS011;6583;42.632;23.298;2024-01-30T12:08:24;7.67;;;4.10;;
13032;SDS011;6583;42.632;23.298;2024-01-30T12:10:55;5.43;;;3.77;;
13032;SDS011;6583;42.632;23.298;2024-01-30T12:13:24;6.63;;;3.63;;
13032;SDS011;6583;42.632;23.298;2024-01-30T12:15:51;6.63;;;4.50;;
13032;SDS011;6583;42.632;23.298;2024-01-30T12:18:18;6.03;;;3.97;;
13032;SDS011;6583;42.632;23.298;2024-01-30T12:20:45;6.90;;;4.20;;
13032;SDS011;6583;42.632;23.298;2024-01-30T12:23:13;6.50;;;4.10;;
13032;SDS011;6583;42.632;23.298;2024-01-30T12:25:40;4.90;;;3.47;;
13032;SDS011;6583;42.632;23.298;2024-01-30T12:28:07;5.33;;;3.40;;
13032;SDS011;6583;42.632;23.298;2024-01-30T12:30:34;5.17;;;4.07;;
13032;SDS011;6583;42.632;23.298;2024-01-30T12:33:01;6.83;;;4.33;;
13032;SDS011;6583;42.632;23.298;2024-01-30T12:35:29;5.17;;;4.17;;
13032;SDS011;6583;42.632;23.298;2024-01-30T12:37:56;6.37;;;4.13;;
13032;SDS011;6583;42.632;23.298;2024-01-30T12:40:24;6.20;;;4.00;;
13032;SDS011;6583;42.632;23.298;2024-01-30T12:42:51;6.23;;;4.37;;
13032;SDS011;6583;42.632;23.298;2024-01-30T12:45:18;9.53;;;6.97;;
13032;SDS011;6583;42.632;23.298;2024-01-30T12:47:46;8.47;;;5.63;;
13032;SDS011;6583;42.632;23.298;2024-01-30T12:50:13;10.37;;;6.00;;
13032;SDS011;6583;42.632;23.298;2024-01-30T12:52:42;14.23;;;7.67;;
13032;SDS011;6583;42.632;23.298;2024-01-30T12:55:09;10.53;;;6.20;;
13032;SDS011;6583;42.632;23.298;2024-01-30T12:57:37;9.67;;;6.77;;
13032;SDS011;6583;42.632;23.298;2024-01-30T13:00:05;7.27;;;4.50;;
13032;SDS011;6583;42.632;23.298;2024-01-30T13:02:33;9.13;;;5.80;;
13032;SDS011;6583;42.632;23.298;2024-01-30T13:05:02;6.93;;;4.67;;
13032;SDS011;6583;42.632;23.298;2024-01-30T13:07:29;9.13;;;6.40;;
13032;SDS011;6583;42.632;23.298;2024-01-30T13:09:56;9.07;;;5.27;;
13032;SDS011;6583;42.632;23.298;2024-01-30T13:12:27;5.77;;;4.10;;
13032;SDS011;6583;42.632;23.298;2024-01-30T13:14:56;6.53;;;4.60;;
13032;SDS011;6583;42.632;23.298;2024-01-30T13:17:22;6.57;;;4.70;;
13032;SDS011;6583;42.632;23.298;2024-01-30T13:19:49;6.50;;;4.53;;
13032;SDS011;6583;42.632;23.298;2024-01-30T13:22:16;6.67;;;4.77;;
13032;SDS011;6583;42.632;23.298;2024-01-30T13:24:43;7.97;;;5.50;;
13032;SDS011;6583;42.632;23.298;2024-01-30T13:27:09;6.60;;;4.47;;
13032;SDS011;6583;42.632;23.298;2024-01-30T13:29:36;5.33;;;4.00;;
13032;SDS011;6583;42.632;23.298;2024-01-30T13:32:04;6.20;;;4.17;;
13032;SDS011;6583;42.632;23.298;2024-01-30T13:34:31;9.17;;;4.17;;
13032;SDS011;6583;42.632;23.298;2024-01-30T13:36:58;7.83;;;4.60;;
13032;SDS011;6583;42.632;23.298;2024-01-30T13:39:25;9.20;;;4.80;;
13032;SDS011;6583;42.632;23.298;2024-01-30T13:41:53;6.43;;;4.70;;
13032;SDS011;6583;42.632;23.298;2024-01-30T13:44:20;6.87;;;4.87;;
13032;SDS011;6583;42.632;23.298;2024-01-30T13:46:47;6.03;;;4.73;;
13032;SDS011;6583;42.632;23.298;2024-01-30T13:49:16;8.83;;;4.83;;
13032;SDS011;6583;42.632;23.298;2024-01-30T13:51:43;7.40;;;5.87;;
13032;SDS011;6583;42.632;23.298;2024-01-30T13:54:10;15.87;;;11.23;;
13032;SDS011;6583;42.632;23.298;2024-01-30T13:56:37;12.30;;;9.67;;
13032;SDS011;6583;42.632;23.298;2024-01-30T13:59:03;9.07;;;5.80;;
13032;SDS011;6583;42.632;23.298;2024-01-30T14:01:32;7.53;;;5.30;;
13032;SDS011;6583;42.632;23.298;2024-01-30T14:03:58;7.13;;;4.67;;
13032;SDS011;6583;42.632;23.298;2024-01-30T14:06:26;7.00;;;4.93;;
13032;SDS011;6583;42.632;23.298;2024-01-30T14:08:53;8.27;;;5.20;;
13032;SDS011;6583;42.632;23.298;2024-01-30T14:11:20;10.00;;;7.30;;
13032;SDS011;6583;42.632;23.298;2024-01-30T14:13:47;10.47;;;6.97;;
13032;SDS011;6583;42.632;23.298;2024-01-30T14:16:14;10.10;;;6.67;;
13032;SDS011;6583;42.632;23.298;2024-01-30T14:18:40;7.20;;;5.33;;
13032;SDS011;6583;42.632;23.298;2024-01-30T14:21:07;8.80;;;5.80;;
13032;SDS011;6583;42.632;23.298;2024-01-30T14:23:35;9.87;;;6.37;;
13032;SDS011;6583;42.632;23.298;2024-01-30T14:26:02;8.47;;;6.57;;
13032;SDS011;6583;42.632;23.298;2024-01-30T14:28:29;9.43;;;6.00;;
13032;SDS011;6583;42.632;23.298;2024-01-30T14:30:56;8.73;;;6.27;;
13032;SDS011;6583;42.632;23.298;2024-01-30T14:33:22;8.07;;;5.77;;
13032;SDS011;6583;42.632;23.298;2024-01-30T14:35:49;7.67;;;5.73;;
13032;SDS011;6583;42.632;23.298;2024-01-30T14:38:16;8.00;;;5.20;;
13032;SDS011;6583;42.632;23.298;2024-01-30T14:40:45;8.30;;;5.83;;
13032;SDS011;6583;42.632;23.298;2024-01-30T14:43:12;9.03;;;6.37;;
13032;SDS011;6583;42.632;23.298;2024-01-30T14:45:39;10.30;;;6.47;;